createdAt,value
2022-11-04T00:01:44.789Z,15.75
2022-11-04T00:04:14.242Z,17.45
2022-11-04T00:06:42.333Z,16.03
2022-11-04T00:09:11.948Z,15.93
2022-11-04T00:11:58.980Z,16.95
2022-11-04T00:14:26.487Z,15.77
2022-11-04T00:17:12.536Z,16.73
2022-11-04T00:19:58.574Z,16.50
2022-11-04T00:22:44.674Z,17.33
2022-11-04T00:25:31.662Z,16.27
2022-11-04T00:28:24.925Z,16.50
2022-11-04T00:31:33.623Z,15.88
2022-11-04T00:34:01.366Z,16.67
2022-11-04T00:36:29.245Z,17.50
2022-11-04T00:38:56.913Z,16.55
2022-11-04T00:41:29.154Z,15.95
2022-11-04T00:44:02.777Z,16.17
2022-11-04T00:46:31.764Z,17.97
2022-11-04T00:48:59.554Z,16.95
2022-11-04T00:51:27.245Z,16.83
2022-11-04T00:53:55.192Z,16.95
2022-11-04T00:56:24.352Z,17.35
2022-11-04T00:58:52.071Z,17.10
2022-11-04T01:01:20.543Z,17.38
2022-11-04T01:03:49.535Z,17.52
2022-11-04T01:06:17.350Z,18.58
2022-11-04T01:08:45.440Z,17.45
2022-11-04T01:11:13.145Z,18.70
2022-11-04T01:13:40.798Z,18.25
2022-11-04T01:16:13.044Z,18.67
2022-11-04T01:18:40.797Z,16.83
2022-11-04T01:21:09.474Z,15.27
2022-11-04T01:23:37.199Z,17.03
2022-11-04T01:26:09.338Z,18.15
2022-11-04T01:28:36.954Z,19.30
2022-11-04T01:31:13.427Z,19.42
2022-11-04T01:33:41.127Z,19.33
2022-11-04T01:36:09.204Z,18.83
2022-11-04T01:38:39.328Z,19.27
2022-11-04T01:41:08.054Z,18.73
2022-11-04T01:43:51.964Z,18.80
2022-11-04T01:46:30.088Z,19.65
2022-11-04T01:49:24.256Z,17.23
2022-11-04T01:51:53.697Z,18.60
2022-11-04T01:54:22.388Z,19.00
2022-11-04T01:56:50.004Z,19.38
2022-11-04T01:59:23.324Z,18.15
2022-11-04T02:01:51.155Z,18.83
2022-11-04T02:04:28.172Z,18.20
2022-11-04T02:07:01.464Z,18.23
2022-11-04T02:09:32.646Z,17.75
2022-11-04T02:12:19.368Z,18.00
2022-11-04T02:14:48.271Z,18.00
2022-11-04T02:17:18.648Z,18.90
2022-11-04T02:20:01.721Z,19.70
2022-11-04T02:22:38.291Z,18.38
2022-11-04T02:25:24.484Z,19.60
2022-11-04T02:28:18.828Z,18.83
2022-11-04T02:30:51.150Z,19.50
2022-11-04T02:33:29.750Z,18.77
2022-11-04T02:36:26.819Z,19.52
2022-11-04T02:39:20.415Z,20.02
2022-11-04T02:42:01.668Z,18.30
2022-11-04T02:44:37.251Z,18.85
2022-11-04T02:47:16.144Z,18.58
2022-11-04T02:49:56.044Z,18.17
2022-11-04T02:52:45.868Z,18.27
2022-11-04T02:55:19.068Z,17.30
2022-11-04T02:57:47.318Z,18.30
2022-11-04T03:00:15.493Z,18.08
2022-11-04T03:03:04.682Z,19.10
2022-11-04T03:05:35.341Z,18.63
2022-11-04T03:08:06.111Z,17.57
2022-11-04T03:10:45.165Z,20.17
2022-11-04T03:13:21.218Z,19.45
2022-11-04T03:15:56.188Z,19.77
2022-11-04T03:18:48.914Z,20.27
2022-11-04T03:21:17.308Z,19.43
2022-11-04T03:23:46.544Z,19.98
2022-11-04T03:26:32.957Z,19.42
2022-11-04T03:29:25.118Z,19.67
2022-11-04T03:32:17.768Z,18.65
2022-11-04T03:34:46.666Z,19.33
2022-11-04T03:37:15.992Z,19.00
2022-11-04T03:39:46.162Z,20.27
2022-11-04T03:42:20.854Z,20.40
2022-11-04T03:44:50.874Z,20.15
2022-11-04T03:47:19.695Z,21.47
2022-11-04T03:49:52.795Z,19.75
2022-11-04T03:52:20.827Z,22.08
2022-11-04T03:54:50.634Z,20.65
2022-11-04T03:57:55.829Z,20.88
2022-11-04T04:00:25.199Z,20.50
2022-11-04T04:03:08.140Z,20.65
2022-11-04T04:05:51.741Z,20.90
2022-11-04T04:08:37.618Z,21.52
2022-11-04T04:12:01.869Z,22.17
2022-11-04T04:14:47.573Z,19.60
2022-11-04T04:17:23.153Z,20.40
2022-11-04T04:20:00.507Z,22.23
2022-11-04T04:22:41.366Z,20.77
2022-11-04T04:25:29.486Z,21.08
2022-11-04T04:27:57.922Z,23.43
2022-11-04T04:30:26.275Z,20.33
2022-11-04T04:33:04.167Z,22.23
2022-11-04T04:35:43.867Z,22.05
2022-11-04T04:38:42.391Z,22.73
2022-11-04T04:41:34.073Z,22.57
2022-11-04T04:44:20.137Z,21.90
2022-11-04T04:46:49.367Z,23.00
2022-11-04T04:49:17.432Z,23.50
2022-11-04T04:51:48.192Z,23.80
2022-11-04T04:54:16.204Z,23.77
2022-11-04T04:56:43.992Z,23.60
2022-11-04T04:59:11.994Z,22.67
2022-11-04T05:01:39.975Z,22.40
2022-11-04T05:04:07.872Z,24.90
2022-11-04T05:06:35.435Z,24.70
2022-11-04T05:09:03.267Z,23.42
2022-11-04T05:11:34.178Z,23.77
2022-11-04T05:14:01.740Z,21.20
2022-11-04T05:16:30.541Z,25.00
2022-11-04T05:19:00.149Z,23.10
2022-11-04T05:21:32.532Z,21.67
2022-11-04T05:24:00.604Z,23.60
2022-11-04T05:26:28.248Z,22.60
2022-11-04T05:28:56.676Z,21.98
2022-11-04T05:31:24.566Z,22.13
2022-11-04T05:33:52.356Z,22.38
2022-11-04T05:36:22.891Z,22.90
2022-11-04T05:38:51.911Z,21.95
2022-11-04T05:41:26.363Z,23.60
2022-11-04T05:44:01.904Z,21.10
2022-11-04T05:46:30.718Z,23.58
2022-11-04T05:49:06.422Z,25.38
2022-11-04T05:51:37.471Z,23.05
2022-11-04T05:54:05.584Z,24.40
2022-11-04T05:56:33.147Z,22.73
2022-11-04T05:59:00.902Z,22.67
2022-11-04T06:01:36.258Z,24.08
2022-11-04T06:04:05.523Z,23.92
2022-11-04T06:06:35.276Z,24.55
2022-11-04T06:09:04.377Z,23.80
2022-11-04T06:11:34.412Z,24.17
2022-11-04T06:14:06.156Z,24.40
2022-11-04T06:16:35.446Z,23.25
2022-11-04T06:19:08.672Z,23.10
2022-11-04T06:21:41.033Z,24.43
2022-11-04T06:24:09.485Z,23.70
2022-11-04T06:26:39.782Z,22.55
2022-11-04T06:29:11.797Z,24.13
2022-11-04T06:31:40.078Z,23.73
2022-11-04T06:34:08.152Z,22.87
2022-11-04T06:36:39.839Z,23.25
2022-11-04T06:39:10.012Z,23.02
2022-11-04T06:41:43.017Z,24.88
2022-11-04T06:44:13.537Z,23.85
2022-11-04T06:46:45.525Z,24.37
2022-11-04T06:49:53.812Z,24.58
2022-11-04T06:52:27.276Z,24.63
2022-11-04T06:55:06.393Z,23.08
2022-11-04T06:57:46.968Z,24.92
2022-11-04T07:00:37.926Z,24.87
2022-11-04T07:03:10.918Z,24.15
2022-11-04T07:05:38.899Z,24.00
2022-11-04T07:08:21.041Z,23.58
2022-11-04T07:11:06.628Z,24.10
2022-11-04T07:17:43.853Z,23.33
2022-11-04T07:20:13.952Z,23.25
2022-11-04T07:22:41.724Z,23.83
2022-11-04T07:25:16.745Z,23.95
2022-11-04T07:27:44.489Z,25.17
2022-11-04T07:30:12.589Z,25.30
2022-11-04T07:32:41.877Z,25.67
2022-11-04T07:35:10.361Z,23.40
2022-11-04T07:37:39.872Z,23.42
2022-11-04T07:40:15.184Z,23.23
2022-11-04T07:42:56.521Z,24.55
2022-11-04T07:45:38.679Z,24.33
2022-11-04T07:48:12.352Z,24.27
2022-11-04T07:50:43.378Z,22.65
2022-11-04T07:53:17.288Z,23.07
2022-11-04T07:56:10.280Z,22.60
2022-11-04T08:03:17.422Z,22.30
2022-11-04T08:05:45.117Z,22.85
2022-11-04T08:08:12.804Z,22.53
2022-11-04T08:10:41.187Z,24.40
2022-11-04T08:13:09.972Z,25.23
2022-11-04T08:15:37.822Z,23.50
2022-11-04T08:18:05.861Z,23.40
2022-11-04T08:20:33.332Z,24.57
2022-11-04T08:23:00.723Z,23.70
2022-11-04T08:25:28.150Z,24.92
2022-11-04T08:28:01.116Z,24.27
2022-11-04T08:30:28.925Z,25.30
2022-11-04T08:32:56.169Z,24.70
2022-11-04T08:35:23.686Z,26.17
2022-11-04T08:37:51.013Z,24.30
2022-11-04T08:40:19.002Z,23.00
2022-11-04T08:42:46.392Z,24.08
2022-11-04T08:45:13.980Z,24.40
2022-11-04T08:47:41.332Z,22.95
2022-11-04T08:50:08.996Z,25.13
2022-11-04T08:52:36.445Z,24.33
2022-11-04T08:55:07.077Z,24.73
2022-11-04T08:57:34.419Z,24.40
2022-11-04T09:00:02.963Z,25.20
2022-11-04T09:02:30.783Z,23.77
2022-11-04T09:04:58.248Z,23.35
2022-11-04T09:07:26.129Z,24.58
2022-11-04T09:09:53.609Z,22.33
2022-11-04T09:12:21.776Z,22.30
2022-11-04T09:14:49.604Z,23.67
2022-11-04T09:17:21.750Z,22.40
2022-11-04T09:19:49.581Z,21.70
2022-11-04T09:22:20.269Z,24.83
2022-11-04T09:24:48.458Z,23.40
2022-11-04T09:27:19.625Z,22.58
2022-11-04T09:29:48.049Z,23.42
2022-11-04T09:32:15.410Z,23.73
2022-11-04T09:34:43.383Z,23.43
2022-11-04T09:37:11.605Z,24.45
2022-11-04T09:39:39.133Z,24.27
2022-11-04T09:42:29.098Z,24.63
2022-11-04T09:45:25.262Z,23.02
2022-11-04T09:47:53.749Z,22.27
2022-11-04T09:50:29.422Z,24.02
2022-11-04T09:53:28.090Z,23.35
2022-11-04T09:56:22.764Z,22.80
2022-11-04T09:58:50.999Z,21.80
2022-11-04T10:01:18.404Z,22.87
2022-11-04T10:04:25.779Z,23.73
2022-11-04T10:07:25.656Z,23.35
2022-11-04T10:10:08.456Z,22.15
2022-11-04T10:13:02.382Z,21.25
2022-11-04T10:15:33.348Z,20.17
2022-11-04T10:18:14.290Z,24.02
2022-11-04T10:20:44.662Z,22.25
2022-11-04T10:23:29.311Z,22.30
2022-11-04T10:26:01.997Z,21.70
2022-11-04T10:28:44.469Z,21.00
2022-11-04T10:31:15.857Z,21.40
2022-11-04T10:33:56.832Z,21.83
2022-11-04T10:36:24.284Z,20.35
2022-11-04T10:38:55.075Z,20.48
2022-11-04T10:41:33.666Z,20.70
2022-11-04T10:44:19.432Z,20.92
2022-11-04T10:46:49.766Z,20.73
2022-11-04T10:50:26.426Z,18.88
2022-11-04T10:52:42.999Z,20.67
2022-11-04T10:55:28.714Z,21.27
2022-11-04T10:57:57.731Z,20.63
2022-11-04T11:00:35.987Z,21.35
2022-11-04T11:03:08.720Z,18.88
2022-11-04T11:05:39.488Z,18.83
2022-11-04T11:08:28.183Z,20.03
2022-11-04T11:10:56.860Z,18.90
2022-11-04T11:13:29.424Z,19.27
2022-11-04T11:16:19.364Z,20.42
2022-11-04T11:19:08.529Z,18.10
2022-11-04T11:21:50.350Z,20.23
2022-11-04T11:24:28.036Z,19.23
2022-11-04T11:27:00.036Z,18.83
2022-11-04T11:29:29.131Z,17.00
2022-11-04T11:31:57.152Z,17.85
2022-11-04T11:34:26.953Z,17.60
2022-11-04T11:36:55.729Z,16.20
2022-11-04T11:39:28.640Z,16.75
2022-11-04T11:42:16.295Z,17.73
2022-11-04T11:44:57.190Z,17.30
2022-11-04T11:47:28.461Z,18.30
2022-11-04T11:50:14.170Z,18.15
2022-11-04T11:52:42.166Z,17.75
2022-11-04T11:55:26.888Z,15.90
2022-11-04T12:01:21.937Z,15.90
2022-11-04T12:09:41.750Z,16.00
2022-11-04T12:13:18.274Z,16.58
2022-11-04T12:16:13.941Z,15.03
2022-11-04T12:19:06.324Z,15.95
2022-11-04T12:21:35.363Z,15.65
2022-11-04T12:24:07.150Z,16.00
2022-11-04T12:26:39.681Z,16.25
2022-11-04T12:29:27.889Z,15.20
2022-11-04T12:32:08.034Z,15.38
2022-11-04T12:34:47.912Z,15.18
2022-11-04T12:37:41.130Z,15.20
2022-11-04T12:40:23.358Z,15.02
2022-11-04T12:43:06.089Z,15.37
2022-11-04T12:45:55.619Z,15.13
2022-11-04T12:48:41.720Z,14.73
2022-11-04T12:51:23.883Z,13.77
2022-11-04T12:54:20.277Z,14.18
2022-11-04T12:56:48.047Z,13.70
2022-11-04T12:59:36.797Z,12.98
2022-11-04T13:02:26.375Z,14.07
2022-11-04T13:05:01.565Z,12.38
2022-11-04T13:07:36.233Z,13.65
2022-11-04T13:10:53.587Z,12.13
2022-11-04T13:13:23.862Z,13.70
2022-11-04T13:15:59.679Z,13.95
2022-11-04T13:18:29.861Z,13.50
2022-11-04T13:21:06.665Z,14.50
2022-11-04T13:24:04.428Z,12.80
2022-11-04T13:26:32.383Z,13.73
2022-11-04T13:29:16.323Z,12.38
2022-11-04T13:32:05.208Z,12.20
2022-11-04T13:34:53.902Z,13.88
2022-11-04T13:37:24.792Z,12.73
2022-11-04T13:40:20.001Z,13.25
2022-11-04T13:43:22.458Z,12.65
2022-11-04T13:45:53.964Z,12.70
2022-11-04T13:48:24.731Z,13.30
2022-11-04T13:51:08.882Z,14.03
2022-11-04T13:53:49.270Z,14.85
2022-11-04T13:56:46.149Z,14.43
2022-11-04T13:59:26.666Z,14.00
2022-11-04T14:02:36.899Z,14.43
2022-11-04T14:05:31.208Z,15.17
2022-11-04T14:08:01.546Z,14.00
2022-11-04T14:10:48.363Z,14.20
2022-11-04T14:13:28.255Z,14.75
2022-11-04T14:16:17.917Z,13.75
2022-11-04T14:18:49.009Z,13.27
2022-11-04T14:21:22.161Z,14.40
2022-11-04T14:23:51.002Z,13.95
2022-11-04T14:26:19.641Z,14.52
2022-11-04T14:28:48.164Z,16.65
2022-11-04T14:31:33.751Z,18.53
2022-11-04T14:34:01.315Z,16.95
2022-11-04T14:36:39.006Z,16.35
2022-11-04T14:39:12.534Z,13.82
2022-11-04T14:41:39.895Z,14.70
2022-11-04T14:44:12.991Z,14.87
2022-11-04T14:46:44.943Z,9.73
2022-11-04T14:49:46.373Z,9.55
2022-11-04T14:52:34.096Z,16.70
2022-11-04T14:55:22.862Z,13.90
2022-11-04T14:57:52.103Z,14.53
2022-11-04T15:00:22.529Z,14.23
2022-11-04T15:03:06.720Z,15.57
2022-11-04T15:05:36.567Z,16.08
2022-11-04T15:08:47.020Z,15.20
2022-11-04T15:11:39.385Z,13.27
2022-11-04T15:14:25.914Z,15.82
2022-11-04T15:16:55.748Z,14.95
2022-11-04T15:19:33.866Z,14.20
2022-11-04T15:22:02.700Z,15.48
2022-11-04T15:24:30.086Z,15.83
2022-11-04T15:27:03.359Z,18.20
2022-11-04T15:29:30.693Z,17.55
2022-11-04T15:32:04.542Z,15.10
2022-11-04T15:34:32.755Z,15.13
2022-11-04T15:37:04.144Z,16.10
2022-11-04T15:39:38.123Z,18.40
2022-11-04T15:42:26.224Z,18.52
2022-11-04T15:44:54.667Z,17.67
2022-11-04T15:47:27.132Z,16.90
2022-11-04T15:50:01.172Z,16.70
2022-11-04T15:52:28.721Z,16.58
2022-11-04T15:54:58.061Z,15.57
2022-11-04T15:57:29.279Z,14.55
2022-11-04T16:00:09.054Z,15.38
2022-11-04T16:02:41.231Z,11.80
2022-11-04T16:05:11.571Z,11.38
2022-11-04T16:07:39.544Z,6.90
2022-11-04T16:10:40.065Z,4.32
2022-11-04T16:13:16.589Z,4.20
2022-11-04T16:15:49.875Z,4.57
2022-11-04T16:18:23.986Z,4.75
2022-11-04T16:20:53.259Z,3.97
2022-11-04T16:23:28.160Z,2.88
2022-11-04T16:26:00.055Z,2.40
2022-11-04T16:28:31.629Z,2.47
2022-11-04T16:30:59.934Z,2.80
2022-11-04T16:33:27.298Z,2.25
2022-11-04T16:35:54.593Z,2.40
2022-11-04T16:38:21.805Z,2.35
2022-11-04T16:40:49.333Z,2.40
2022-11-04T16:43:19.035Z,2.22
2022-11-04T16:45:53.348Z,2.65
2022-11-04T16:48:21.385Z,2.80
2022-11-04T16:50:49.155Z,2.70
2022-11-04T16:53:16.423Z,2.17
2022-11-04T16:55:43.948Z,2.00
2022-11-04T16:58:16.080Z,2.03
2022-11-04T17:00:43.557Z,1.90
2022-11-04T17:03:23.479Z,2.25
2022-11-04T17:05:51.912Z,2.07
2022-11-04T17:08:19.324Z,2.10
2022-11-04T17:10:46.666Z,2.25
2022-11-04T17:13:13.934Z,2.35
2022-11-04T17:15:41.425Z,2.78
2022-11-04T17:18:11.086Z,2.70
2022-11-04T17:20:39.816Z,2.33
2022-11-04T17:23:07.482Z,2.95
2022-11-04T17:25:34.983Z,2.80
2022-11-04T17:28:02.184Z,2.80
2022-11-04T17:30:29.563Z,3.43
2022-11-04T17:32:57.225Z,3.30
2022-11-04T17:35:24.725Z,3.72
2022-11-04T17:37:55.247Z,3.22
2022-11-04T17:40:23.162Z,2.65
2022-11-04T17:43:12.348Z,2.57
2022-11-04T17:45:43.085Z,2.90
2022-11-04T17:48:11.518Z,2.67
2022-11-04T17:50:39.760Z,2.58
2022-11-04T17:53:07.627Z,2.88
2022-11-04T17:55:40.111Z,2.70
2022-11-04T17:58:07.633Z,3.65
2022-11-04T18:00:34.844Z,3.05
2022-11-04T18:03:02.149Z,2.88
2022-11-04T18:05:29.741Z,2.70
2022-11-04T18:07:58.751Z,2.77
2022-11-04T18:10:25.996Z,2.90
2022-11-04T18:12:53.480Z,3.00
2022-11-04T18:15:20.882Z,2.53
2022-11-04T18:17:50.080Z,2.35
2022-11-04T18:20:17.322Z,2.27
2022-11-04T18:22:44.845Z,2.30
2022-11-04T18:25:12.340Z,2.65
2022-11-04T18:27:39.871Z,2.35
2022-11-04T18:30:07.630Z,2.60
2022-11-04T18:32:34.976Z,2.10
2022-11-04T18:35:02.246Z,2.40
2022-11-04T18:37:29.761Z,2.28
2022-11-04T18:39:57.012Z,2.03
2022-11-04T18:42:24.335Z,2.40
2022-11-04T18:44:51.662Z,2.43
2022-11-04T18:47:20.213Z,2.53
2022-11-04T18:49:48.043Z,2.42
2022-11-04T18:52:15.323Z,2.00
2022-11-04T18:54:43.429Z,2.20
2022-11-04T18:57:12.002Z,2.00
2022-11-04T18:59:39.295Z,1.90
2022-11-04T19:02:07.097Z,2.53
2022-11-04T19:04:34.633Z,2.53
2022-11-04T19:07:04.101Z,2.30
2022-11-04T19:09:47.878Z,2.03
2022-11-04T19:12:35.156Z,1.90
2022-11-04T19:15:04.668Z,2.10
2022-11-04T19:17:32.492Z,1.80
2022-11-04T19:20:00.059Z,1.90
2022-11-04T19:22:27.712Z,1.80
2022-11-04T19:24:55.778Z,2.05
2022-11-04T19:27:25.300Z,2.00
2022-11-04T19:29:53.081Z,2.22
2022-11-04T19:32:20.775Z,2.00
2022-11-04T19:34:48.352Z,2.30
2022-11-04T19:37:16.153Z,2.20
2022-11-04T19:39:44.181Z,2.40
2022-11-04T19:42:30.506Z,2.47
2022-11-04T19:44:58.004Z,2.47
2022-11-04T19:47:25.403Z,1.90
2022-11-04T19:49:52.978Z,2.22
2022-11-04T19:52:20.597Z,2.45
2022-11-04T19:54:48.225Z,2.53
2022-11-04T19:57:16.518Z,3.00
2022-11-04T19:59:44.069Z,2.53
2022-11-04T20:02:15.146Z,2.30
2022-11-04T20:04:42.837Z,2.33
2022-11-04T20:07:10.341Z,2.10
2022-11-04T20:09:37.861Z,2.42
2022-11-04T20:12:24.279Z,2.13
2022-11-04T20:14:55.476Z,1.95
2022-11-04T20:17:23.526Z,2.30
2022-11-04T20:19:51.072Z,1.75
2022-11-04T20:22:18.536Z,1.88
2022-11-04T20:24:45.975Z,2.10
2022-11-04T20:27:16.966Z,1.60
2022-11-04T20:29:44.662Z,1.80
2022-11-04T20:32:12.208Z,1.83
2022-11-04T20:34:40.185Z,1.75
2022-11-04T20:37:08.021Z,1.50
2022-11-04T20:39:35.684Z,1.85
2022-11-04T20:42:03.589Z,1.85
2022-11-04T20:44:31.276Z,1.88
2022-11-04T20:46:59.398Z,2.00
2022-11-04T20:49:26.932Z,2.27
2022-11-04T20:51:55.973Z,2.45
2022-11-04T20:54:23.869Z,2.33
2022-11-04T20:56:51.301Z,1.92
2022-11-04T20:59:18.968Z,1.48
2022-11-04T21:01:46.827Z,1.83
2022-11-04T21:04:18.434Z,1.40
2022-11-04T21:06:47.007Z,1.40
2022-11-04T21:09:18.012Z,1.55
2022-11-04T21:11:45.686Z,1.75
2022-11-04T21:14:14.662Z,1.50
2022-11-04T21:16:42.247Z,1.70
2022-11-04T21:19:10.376Z,1.88
2022-11-04T21:21:37.930Z,1.90
2022-11-04T21:24:06.097Z,1.80
2022-11-04T21:26:34.882Z,1.90
2022-11-04T21:29:07.785Z,1.45
2022-11-04T21:31:36.243Z,1.70
2022-11-04T21:34:04.210Z,1.40
2022-11-04T21:36:32.286Z,1.65
2022-11-04T21:39:00.020Z,1.30
2022-11-04T21:41:29.354Z,1.45
2022-11-04T21:43:57.949Z,1.50
2022-11-04T21:46:25.744Z,1.40
2022-11-04T21:48:53.418Z,1.60
2022-11-04T21:51:22.464Z,1.40
2022-11-04T21:53:49.936Z,1.60
2022-11-04T21:56:19.679Z,1.50
2022-11-04T21:58:47.428Z,1.60
2022-11-04T22:01:17.179Z,1.60
2022-11-04T22:03:45.096Z,1.60
2022-11-04T22:06:13.397Z,1.42
2022-11-04T22:08:45.130Z,1.70
2022-11-04T22:11:14.493Z,1.80
2022-11-04T22:13:42.131Z,2.05
2022-11-04T22:16:15.557Z,1.70
2022-11-04T22:18:43.338Z,1.58
2022-11-04T22:21:13.282Z,1.92
2022-11-04T22:23:40.919Z,1.63
2022-11-04T22:26:10.954Z,1.50
2022-11-04T22:28:38.592Z,1.40
2022-11-04T22:31:09.866Z,1.35
2022-11-04T22:33:38.054Z,1.40
2022-11-04T22:36:06.298Z,1.52
2022-11-04T22:38:34.738Z,1.35
2022-11-04T22:41:02.624Z,1.30
2022-11-04T22:43:30.321Z,1.27
2022-11-04T22:45:58.203Z,1.23
2022-11-04T22:48:25.849Z,0.93
2022-11-04T22:50:57.424Z,0.90
2022-11-04T22:53:25.430Z,1.20
2022-11-04T22:55:52.936Z,1.20
2022-11-04T22:58:20.454Z,1.20
2022-11-04T23:00:54.529Z,1.30
2022-11-04T23:03:22.228Z,1.10
2022-11-04T23:05:54.044Z,1.10
2022-11-04T23:08:21.536Z,1.10
2022-11-04T23:11:07.536Z,0.90
2022-11-04T23:13:53.723Z,0.98
2022-11-04T23:16:39.786Z,1.00
2022-11-04T23:19:07.534Z,1.13
2022-11-04T23:21:53.746Z,1.00
2022-11-04T23:24:39.909Z,1.00
2022-11-04T23:27:07.474Z,0.98
2022-11-04T23:29:53.438Z,0.88
2022-11-04T23:32:26.193Z,0.50
2022-11-04T23:35:13.352Z,0.82
2022-11-04T23:37:41.001Z,0.82
2022-11-04T23:40:09.341Z,0.80
2022-11-04T23:42:37.209Z,0.85
2022-11-04T23:45:23.659Z,0.90
2022-11-04T23:48:09.613Z,0.70
2022-11-04T23:50:55.745Z,0.90
2022-11-04T23:53:41.697Z,0.60
2022-11-04T23:56:28.649Z,0.73
2022-11-04T23:59:14.756Z,0.70
